Terminal Aerodrome Forecast
Issued by NWS Tallahassee, FL

Home | Current Version | Previous Version | Text Only | Print | Product List | Glossary On
Versions: 1 2 3 4 5 6 7 8 9 10 11 12 13 14 15 16
000
FTUS42 KTAE 301314 AAB
TAFTLH
TAF AMD
KTLH 301314Z 3013/3112 00000KT 3SM BR BKN003
     FM301400 12005KT P6SM BKN030=

USA.gov is the U.S. government's official web portal to all federal, state and local government web resources and services.